Time;durP1;ratioP1;P1;durP2;ratioP2;P2;SDS_P1;SDS_P2;PMS_P1;PMS_P2;Temp;Humidity;BMP_temperature;BMP_pressure;BME280_temperature;BME280_humidity;BME280_pressure;Samples;Min_cycle;Max_cycle;Signal;HPM_P1;HPM_P2
2023/06/22 00:02:02;;;;;;;13.73;6.53;;;;;;;;;;4995381;28;20213;-73
2023/06/22 00:05:06;;;;;;;9.40;6.37;;;;;;;;;;4996539;28;20543;-73
2023/06/22 00:08:11;;;;;;;10.27;6.40;;;;;;;;;;4996100;28;20178;-73
2023/06/22 00:11:15;;;;;;;7.70;6.20;;;;;;;;;;4996027;28;20213;-73
2023/06/22 00:14:19;;;;;;;10.27;6.07;;;;;;;;;;4995267;28;20166;-73
2023/06/22 00:17:23;;;;;;;9.83;6.10;;;;;;;;;;4995416;28;20531;-73
2023/06/22 00:20:30;;;;;;;15.67;7.07;;;;;;;;;;4996483;28;20499;-73
2023/06/22 00:23:34;;;;;;;11.13;6.57;;;;;;;;;;4996118;28;20179;-73
2023/06/22 00:26:38;;;;;;;8.80;6.20;;;;;;;;;;4995243;28;20182;-73
2023/06/22 00:29:46;;;;;;;13.97;6.47;;;;;;;;;;4994255;28;20178;-72
2023/06/22 00:32:50;;;;;;;11.70;6.37;;;;;;;;;;4995245;28;20229;-72
2023/06/22 00:35:54;;;;;;;9.50;5.73;;;;;;;;;;4983941;28;20629;-73
2023/06/22 00:38:58;;;;;;;10.03;5.47;;;;;;;;;;5006252;28;20186;-73
2023/06/22 00:42:03;;;;;;;8.67;5.37;;;;;;;;;;4983483;28;20221;-73
2023/06/22 00:45:08;;;;;;;11.47;5.60;;;;;;;;;;5005936;28;20190;-73
2023/06/22 00:48:14;;;;;;;10.33;5.57;;;;;;;;;;5006061;28;20629;-72
2023/06/22 00:51:23;;;;;;;8.60;5.70;;;;;;;;;;4995409;28;20573;-72
2023/06/22 00:54:28;;;;;;;9.77;5.10;;;;;;;;;;5005973;28;20183;-72
2023/06/22 00:57:32;;;;;;;9.90;5.40;;;;;;;;;;4995429;28;20206;-72
2023/06/22 01:00:37;;;;;;;10.73;5.50;;;;;;;;;;4994999;28;20202;-72
2023/06/22 01:03:41;;;;;;;9.87;4.90;;;;;;;;;;4995635;28;20182;-72
2023/06/22 01:07:04;;;;;;;6.20;4.70;;;;;;;;;;4994392;28;20186;-72
2023/06/22 01:10:15;;;;;;;6.70;4.30;;;;;;;;;;4994705;28;20187;-73
2023/06/22 01:13:29;;;;;;;10.10;5.10;;;;;;;;;;4994391;28;20202;-72
2023/06/22 01:16:36;;;;;;;7.03;4.77;;;;;;;;;;5005546;28;20186;-72
2023/06/22 01:19:46;;;;;;;11.93;4.80;;;;;;;;;;4994251;28;20178;-72
2023/06/22 01:23:07;;;;;;;6.57;4.57;;;;;;;;;;4994691;28;20709;-72
2023/06/22 01:26:21;;;;;;;9.03;4.83;;;;;;;;;;5005401;28;20186;-73
2023/06/22 01:29:29;;;;;;;8.47;6.00;;;;;;;;;;4994570;28;20198;-73
2023/06/22 01:32:35;;;;;;;8.90;5.10;;;;;;;;;;4993638;28;20221;-72
2023/06/22 01:35:40;;;;;;;7.47;5.17;;;;;;;;;;4994765;28;20182;-73
2023/06/22 01:38:46;;;;;;;6.97;5.27;;;;;;;;;;4994736;28;20518;-72
2023/06/22 01:41:51;;;;;;;8.27;5.67;;;;;;;;;;4993553;28;20699;-72
2023/06/22 01:44:56;;;;;;;8.63;5.57;;;;;;;;;;4994924;28;20503;-72
2023/06/22 01:48:01;;;;;;;10.20;5.10;;;;;;;;;;4993779;28;20178;-73
2023/06/22 01:51:06;;;;;;;7.03;5.03;;;;;;;;;;4993400;28;20217;-73
2023/06/22 01:54:10;;;;;;;9.13;4.70;;;;;;;;;;4994131;28;20206;-73
2023/06/22 01:57:15;;;;;;;9.23;5.00;;;;;;;;;;4994151;28;20186;-72
2023/06/22 02:00:23;;;;;;;9.40;4.40;;;;;;;;;;5004519;28;20198;-73
2023/06/22 02:03:36;;;;;;;10.70;4.67;;;;;;;;;;4993244;28;20538;-72
2023/06/22 02:06:45;;;;;;;12.53;5.63;;;;;;;;;;4993196;28;20182;-72
2023/06/22 02:09:52;;;;;;;10.43;4.63;;;;;;;;;;4994472;28;20186;-72
2023/06/22 02:12:58;;;;;;;10.17;5.30;;;;;;;;;;4992970;28;20222;-73
2023/06/22 02:16:03;;;;;;;8.37;5.07;;;;;;;;;;4993876;28;20518;-72
2023/06/22 02:19:08;;;;;;;6.63;4.43;;;;;;;;;;4993288;28;20178;-72
2023/06/22 02:22:14;;;;;;;8.83;5.07;;;;;;;;;;4993760;28;20214;-73
2023/06/22 02:25:19;;;;;;;11.97;5.70;;;;;;;;;;4993281;28;20182;-73
2023/06/22 02:28:23;;;;;;;9.00;5.20;;;;;;;;;;4992910;28;20182;-73
2023/06/22 02:31:30;;;;;;;9.50;4.93;;;;;;;;;;4993779;28;20565;-72
2023/06/22 02:34:36;;;;;;;8.50;5.60;;;;;;;;;;5004060;28;20221;-72
2023/06/22 02:37:41;;;;;;;10.27;5.23;;;;;;;;;;4993670;28;20178;-72
2023/06/22 02:40:45;;;;;;;6.83;5.37;;;;;;;;;;5004288;28;20182;-72
2023/06/22 02:43:50;;;;;;;11.03;6.10;;;;;;;;;;4993640;28;20534;-72
2023/06/22 02:46:57;;;;;;;9.13;5.63;;;;;;;;;;4993600;28;20174;-72
2023/06/22 02:50:02;;;;;;;11.07;6.30;;;;;;;;;;4992770;28;20205;-72
2023/06/22 02:53:08;;;;;;;11.27;5.27;;;;;;;;;;5006941;28;20562;-72
2023/06/22 02:56:15;;;;;;;7.27;5.47;;;;;;;;;;4985796;28;20186;-72
2023/06/22 02:59:23;;;;;;;9.70;5.93;;;;;;;;;;4996544;28;20198;-73
2023/06/22 03:02:29;;;;;;;12.03;6.17;;;;;;;;;;5007764;28;20226;-73
2023/06/22 03:05:35;;;;;;;9.27;6.43;;;;;;;;;;4996623;28;20179;-72
2023/06/22 03:08:39;;;;;;;9.57;5.50;;;;;;;;;;5007936;28;20633;-72
2023/06/22 03:11:43;;;;;;;9.07;5.17;;;;;;;;;;5007553;28;20222;-73
2023/06/22 03:14:47;;;;;;;8.63;5.33;;;;;;;;;;5007800;28;20225;-73
2023/06/22 03:17:52;;;;;;;8.47;5.60;;;;;;;;;;4996534;28;20209;-73
2023/06/22 03:20:56;;;;;;;10.00;5.13;;;;;;;;;;4996949;28;20565;-73
2023/06/22 03:24:02;;;;;;;6.33;4.63;;;;;;;;;;5007440;28;20179;-73
2023/06/22 03:27:06;;;;;;;8.73;5.50;;;;;;;;;;4997146;28;20194;-73
2023/06/22 03:30:12;;;;;;;8.27;5.03;;;;;;;;;;4996011;28;20549;-73
2023/06/22 03:33:16;;;;;;;9.47;5.57;;;;;;;;;;5007245;28;20222;-73
2023/06/22 03:36:22;;;;;;;9.57;5.70;;;;;;;;;;4996943;28;20661;-73
2023/06/22 03:39:26;;;;;;;9.10;5.23;;;;;;;;;;5007406;28;20178;-73
2023/06/22 03:42:30;;;;;;;8.80;4.97;;;;;;;;;;4995767;28;20218;-73
2023/06/22 03:45:35;;;;;;;10.07;5.77;;;;;;;;;;4996612;28;20178;-73
2023/06/22 03:48:39;;;;;;;10.37;5.40;;;;;;;;;;5006958;28;20190;-73
2023/06/22 03:51:43;;;;;;;8.17;6.07;;;;;;;;;;4984465;28;20217;-73
2023/06/22 03:54:47;;;;;;;11.13;6.30;;;;;;;;;;4984952;28;20206;-73
2023/06/22 03:57:53;;;;;;;8.73;5.87;;;;;;;;;;4996519;28;20191;-73
2023/06/22 04:00:57;;;;;;;9.83;6.23;;;;;;;;;;4996202;28;20221;-72
2023/06/22 04:04:01;;;;;;;9.57;5.50;;;;;;;;;;4995885;28;20194;-73
2023/06/22 04:07:05;;;;;;;8.17;5.33;;;;;;;;;;5006739;28;20178;-73
2023/06/22 04:10:10;;;;;;;8.90;5.80;;;;;;;;;;4996382;28;20633;-72
2023/06/22 04:13:14;;;;;;;9.10;5.40;;;;;;;;;;4995951;28;20215;-73
2023/06/22 04:16:18;;;;;;;7.70;5.30;;;;;;;;;;4984289;28;20202;-73
2023/06/22 04:19:22;;;;;;;8.83;4.83;;;;;;;;;;4995928;28;20206;-73
2023/06/22 04:22:26;;;;;;;7.90;4.93;;;;;;;;;;4995012;28;20572;-73
2023/06/22 04:25:30;;;;;;;9.63;5.27;;;;;;;;;;4995339;28;20179;-73
2023/06/22 04:28:37;;;;;;;8.63;6.37;;;;;;;;;;4996045;28;20182;-73
2023/06/22 04:31:41;;;;;;;12.33;6.03;;;;;;;;;;4995566;28;20221;-73
2023/06/22 04:34:45;;;;;;;8.50;6.73;;;;;;;;;;4984561;28;20230;-73
2023/06/22 04:37:50;;;;;;;11.73;6.63;;;;;;;;;;4995836;28;20190;-72
2023/06/22 04:40:54;;;;;;;10.97;8.17;;;;;;;;;;4992597;28;20589;-73
2023/06/22 04:43:59;;;;;;;10.63;7.17;;;;;;;;;;4994625;28;20178;-72
2023/06/22 04:47:06;;;;;;;11.43;7.87;;;;;;;;;;4995016;28;20206;-73
2023/06/22 04:50:11;;;;;;;10.27;6.83;;;;;;;;;;4994584;28;20182;-73
2023/06/22 04:53:16;;;;;;;9.87;7.00;;;;;;;;;;4995740;28;20198;-73
2023/06/22 04:56:21;;;;;;;12.30;6.87;;;;;;;;;;4994747;28;20515;-73
2023/06/22 04:59:28;;;;;;;13.13;8.13;;;;;;;;;;4995111;28;20194;-73
2023/06/22 05:02:32;;;;;;;10.33;7.40;;;;;;;;;;4994972;28;20221;-72
2023/06/22 05:05:37;;;;;;;10.10;7.47;;;;;;;;;;4995618;28;20170;-72
2023/06/22 05:08:40;;;;;;;11.47;8.20;;;;;;;;;;4994367;28;20178;-73
2023/06/22 05:11:45;;;;;;;9.47;7.33;;;;;;;;;;4994870;28;20217;-73
2023/06/22 05:14:48;;;;;;;12.97;8.77;;;;;;;;;;4993957;28;20218;-72
2023/06/22 05:17:53;;;;;;;12.03;7.37;;;;;;;;;;4994196;28;20202;-72
2023/06/22 05:20:58;;;;;;;11.07;7.60;;;;;;;;;;4994136;28;20218;-72
2023/06/22 05:24:02;;;;;;;16.53;7.80;;;;;;;;;;5005162;28;20194;-72
2023/06/22 05:27:07;;;;;;;8.83;7.03;;;;;;;;;;4994123;28;20178;-73
2023/06/22 05:30:11;;;;;;;9.30;6.77;;;;;;;;;;4993795;28;20206;-73
2023/06/22 05:33:15;;;;;;;11.40;6.67;;;;;;;;;;4994422;28;20202;-73
2023/06/22 05:36:21;;;;;;;9.40;6.70;;;;;;;;;;4994525;28;20514;-72
2023/06/22 05:39:25;;;;;;;8.20;6.80;;;;;;;;;;5004739;28;20202;-72
2023/06/22 05:42:30;;;;;;;10.83;7.57;;;;;;;;;;4994295;28;20229;-73
2023/06/22 05:45:34;;;;;;;13.40;7.67;;;;;;;;;;4994094;28;20507;-73
2023/06/22 05:48:38;;;;;;;14.07;8.00;;;;;;;;;;4994238;28;20526;-73
2023/06/22 05:51:42;;;;;;;12.77;7.07;;;;;;;;;;4993527;28;20209;-72
2023/06/22 05:54:47;;;;;;;8.83;5.93;;;;;;;;;;4993482;28;20201;-72
2023/06/22 05:57:51;;;;;;;11.03;6.13;;;;;;;;;;4993375;28;20649;-72
2023/06/22 06:00:55;;;;;;;7.83;5.67;;;;;;;;;;4993980;28;20222;-72
2023/06/22 06:03:59;;;;;;;10.40;5.47;;;;;;;;;;4993961;28;20178;-72
2023/06/22 06:07:04;;;;;;;12.23;5.60;;;;;;;;;;4993246;28;20199;-73
2023/06/22 06:10:09;;;;;;;7.90;5.40;;;;;;;;;;4993009;28;20201;-73
2023/06/22 06:13:13;;;;;;;9.73;5.43;;;;;;;;;;4993059;28;20672;-73
2023/06/22 06:16:17;;;;;;;12.13;5.37;;;;;;;;;;4993107;28;20174;-73
2023/06/22 06:19:21;;;;;;;6.90;4.97;;;;;;;;;;4993058;28;20186;-73
2023/06/22 06:22:25;;;;;;;9.33;4.80;;;;;;;;;;4993729;28;20218;-72
2023/06/22 06:25:30;;;;;;;8.00;4.33;;;;;;;;;;4993999;28;20183;-72
2023/06/22 06:28:34;;;;;;;13.20;4.20;;;;;;;;;;4993731;28;20646;-72
2023/06/22 06:31:38;;;;;;;7.07;4.33;;;;;;;;;;4993009;28;20222;-73
2023/06/22 06:34:42;;;;;;;10.20;4.07;;;;;;;;;;4992717;28;20221;-72
2023/06/22 06:37:49;;;;;;;13.20;4.07;;;;;;;;;;4993639;28;20635;-72
2023/06/22 06:40:53;;;;;;;6.37;3.73;;;;;;;;;;4992615;28;20239;-72
2023/06/22 06:43:57;;;;;;;6.73;3.00;;;;;;;;;;4993603;28;20182;-72
2023/06/22 06:47:01;;;;;;;7.33;3.20;;;;;;;;;;4994134;28;20179;-72
2023/06/22 06:50:06;;;;;;;8.47;3.33;;;;;;;;;;4993574;28;20176;-72
2023/06/22 06:53:10;;;;;;;9.63;3.07;;;;;;;;;;4992846;28;20535;-72
2023/06/22 06:56:14;;;;;;;8.93;3.47;;;;;;;;;;4993341;28;20220;-72
2023/06/22 06:59:19;;;;;;;8.47;3.17;;;;;;;;;;4993517;28;20185;-72
2023/06/22 07:02:24;;;;;;;8.20;2.80;;;;;;;;;;4993689;28;20565;-72
2023/06/22 07:05:28;;;;;;;5.80;2.73;;;;;;;;;;4993759;28;20627;-72
2023/06/22 07:08:32;;;;;;;6.10;3.13;;;;;;;;;;4992655;28;20183;-72
2023/06/22 07:11:36;;;;;;;5.80;2.93;;;;;;;;;;4992481;28;20220;-72
2023/06/22 07:14:40;;;;;;;7.87;3.30;;;;;;;;;;4993366;28;20219;-72
2023/06/22 07:17:44;;;;;;;3.90;2.57;;;;;;;;;;4992584;28;20182;-72
2023/06/22 07:20:48;;;;;;;6.57;2.90;;;;;;;;;;4992819;28;20182;-72
2023/06/22 07:23:54;;;;;;;7.03;3.00;;;;;;;;;;4992484;28;20632;-72
2023/06/22 07:26:58;;;;;;;7.80;3.20;;;;;;;;;;4993336;28;20179;-72
2023/06/22 07:30:04;;;;;;;8.68;3.15;;;;;;;;;;4993419;28;20179;-71
2023/06/22 07:33:09;;;;;;;6.65;2.97;;;;;;;;;;4969683;28;20203;-72
2023/06/22 07:36:12;;;;;;;7.72;2.88;;;;;;;;;;4992819;28;20219;-71
2023/06/22 07:39:16;;;;;;;7.97;3.35;;;;;;;;;;4994822;28;20211;-72
2023/06/22 07:42:20;;;;;;;6.95;2.92;;;;;;;;;;4996261;28;20704;-72
2023/06/22 07:45:25;;;;;;;8.80;3.25;;;;;;;;;;4995960;28;20619;-71
2023/06/22 07:48:29;;;;;;;8.52;2.88;;;;;;;;;;4996780;28;20186;-72
2023/06/22 07:51:32;;;;;;;6.40;2.95;;;;;;;;;;4996379;28;20221;-72
2023/06/22 07:54:36;;;;;;;10.52;3.30;;;;;;;;;;4996083;28;20222;-72
2023/06/22 07:57:42;;;;;;;4.97;2.80;;;;;;;;;;4995364;28;20183;-72
2023/06/22 08:00:47;;;;;;;6.43;3.28;;;;;;;;;;4996383;28;20183;-72
2023/06/22 08:03:51;;;;;;;9.57;3.25;;;;;;;;;;4995574;28;20187;-71
2023/06/22 08:06:55;;;;;;;7.93;2.90;;;;;;;;;;4995173;28;20518;-71
2023/06/22 08:09:59;;;;;;;5.75;3.00;;;;;;;;;;4996294;28;20202;-72
2023/06/22 08:13:03;;;;;;;7.20;3.13;;;;;;;;;;4995885;28;20654;-72
2023/06/22 08:16:08;;;;;;;6.03;3.35;;;;;;;;;;4996022;28;20209;-72
2023/06/22 08:19:12;;;;;;;6.20;3.17;;;;;;;;;;4995136;28;20609;-72
2023/06/22 08:22:16;;;;;;;6.15;3.25;;;;;;;;;;4995624;28;20218;-72
2023/06/22 08:25:20;;;;;;;9.55;3.30;;;;;;;;;;4995906;28;20179;-72
2023/06/22 08:28:24;;;;;;;8.27;3.60;;;;;;;;;;4995774;28;20637;-72
2023/06/22 08:31:28;;;;;;;7.68;3.35;;;;;;;;;;4995676;28;20214;-72
2023/06/22 08:34:34;;;;;;;10.15;3.75;;;;;;;;;;4995192;28;20210;-72
2023/06/22 08:37:39;;;;;;;10.07;3.55;;;;;;;;;;4995573;28;20202;-71
2023/06/22 08:40:43;;;;;;;6.13;3.50;;;;;;;;;;4995249;28;20206;-72
2023/06/22 08:43:47;;;;;;;6.82;3.60;;;;;;;;;;4994508;28;20183;-71
2023/06/22 08:46:51;;;;;;;9.57;3.80;;;;;;;;;;4983580;28;20194;-72
2023/06/22 08:49:56;;;;;;;5.80;3.38;;;;;;;;;;4993454;28;20198;-72
2023/06/22 08:53:00;;;;;;;10.63;3.38;;;;;;;;;;4995226;28;20183;-72
2023/06/22 08:56:04;;;;;;;7.82;3.22;;;;;;;;;;4994649;28;20218;-72
2023/06/22 08:59:08;;;;;;;10.63;3.67;;;;;;;;;;4994437;28;20198;-72
2023/06/22 09:02:12;;;;;;;8.43;3.58;;;;;;;;;;4995050;28;20214;-73
2023/06/22 09:05:17;;;;;;;13.13;3.67;;;;;;;;;;4995115;28;20523;-72
2023/06/22 09:08:21;;;;;;;8.32;3.53;;;;;;;;;;4994160;28;20183;-72
2023/06/22 09:11:25;;;;;;;8.95;3.22;;;;;;;;;;4975470;28;20227;-72
2023/06/22 09:14:29;;;;;;;12.15;3.92;;;;;;;;;;4975764;28;20634;-72
2023/06/22 09:17:35;;;;;;;6.00;3.53;;;;;;;;;;4976171;28;20175;-72
2023/06/22 09:20:39;;;;;;;11.60;3.83;;;;;;;;;;4974935;28;20213;-72
2023/06/22 09:23:42;;;;;;;6.78;3.60;;;;;;;;;;4975618;28;20187;-72
2023/06/22 09:26:47;;;;;;;9.02;3.67;;;;;;;;;;4975684;28;20171;-73
2023/06/22 09:29:51;;;;;;;6.95;3.47;;;;;;;;;;4975983;28;20187;-73
2023/06/22 09:32:55;;;;;;;11.88;4.47;;;;;;;;;;4985604;28;20222;-72
2023/06/22 09:35:59;;;;;;;9.05;3.85;;;;;;;;;;4975318;28;20218;-72
2023/06/22 09:39:06;;;;;;;7.30;3.67;;;;;;;;;;4976206;28;20198;-73
2023/06/22 09:42:10;;;;;;;10.43;3.53;;;;;;;;;;4994171;28;20556;-72
2023/06/22 09:45:14;;;;;;;18.00;3.88;;;;;;;;;;4994252;28;20191;-72
2023/06/22 09:48:18;;;;;;;8.95;3.40;;;;;;;;;;4993595;28;20669;-72
2023/06/22 09:51:23;;;;;;;7.60;3.42;;;;;;;;;;4994265;28;20213;-72
2023/06/22 09:54:27;;;;;;;10.30;3.75;;;;;;;;;;4993709;28;20183;-72
2023/06/22 09:57:31;;;;;;;10.50;3.95;;;;;;;;;;4994218;28;20642;-72
2023/06/22 10:00:35;;;;;;;6.72;3.47;;;;;;;;;;4993191;28;20183;-73
2023/06/22 10:03:41;;;;;;;8.57;3.10;;;;;;;;;;4994483;28;20182;-72
2023/06/22 10:06:45;;;;;;;6.70;3.30;;;;;;;;;;4994270;28;20539;-73
2023/06/22 10:09:49;;;;;;;13.60;3.55;;;;;;;;;;4993354;28;20214;-73
2023/06/22 10:12:57;;;;;;;7.70;3.90;;;;;;;;;;4993978;28;20218;-72
2023/06/22 10:16:02;;;;;;;9.13;3.88;;;;;;;;;;4993891;28;20202;-73
2023/06/22 10:19:06;;;;;;;8.52;3.58;;;;;;;;;;4994323;28;20179;-73
2023/06/22 10:22:10;;;;;;;9.20;3.78;;;;;;;;;;4994018;28;20222;-73
2023/06/22 10:25:14;;;;;;;11.73;3.92;;;;;;;;;;4993947;28;20194;-73
2023/06/22 10:28:18;;;;;;;10.43;4.30;;;;;;;;;;4994004;28;20182;-72
2023/06/22 10:31:22;;;;;;;9.38;4.00;;;;;;;;;;4994197;28;20221;-73
2023/06/22 10:34:26;;;;;;;9.73;4.13;;;;;;;;;;4993753;28;20669;-72
2023/06/22 10:37:31;;;;;;;10.20;3.42;;;;;;;;;;4993798;28;20638;-73
2023/06/22 10:40:35;;;;;;;13.10;3.88;;;;;;;;;;4993607;28;20210;-73
2023/06/22 10:43:59;;;;;;;9.63;3.90;;;;;;;;;;4993813;28;20182;-73
2023/06/22 10:47:03;;;;;;;10.85;3.72;;;;;;;;;;4953423;29;20212;-71
2023/06/22 10:50:07;;;;;;;8.45;3.47;;;;;;;;;;4955490;29;20179;-71
2023/06/22 10:53:12;;;;;;;17.27;4.20;;;;;;;;;;4934705;29;20238;-70
2023/06/22 10:56:17;;;;;;;13.07;4.03;;;;;;;;;;4935636;29;20216;-71
2023/06/22 10:59:23;;;;;;;8.13;4.00;;;;;;;;;;4935884;29;20200;-71
2023/06/22 11:02:28;;;;;;;10.05;3.97;;;;;;;;;;4935638;29;20220;-71
2023/06/22 11:05:32;;;;;;;10.98;4.10;;;;;;;;;;4935535;29;20181;-71
2023/06/22 11:08:36;;;;;;;14.43;3.90;;;;;;;;;;4935885;29;20188;-71
2023/06/22 11:11:41;;;;;;;19.65;4.55;;;;;;;;;;4935541;29;20617;-71
2023/06/22 11:14:45;;;;;;;15.45;4.60;;;;;;;;;;4939511;29;20184;-71
2023/06/22 11:17:49;;;;;;;10.85;4.43;;;;;;;;;;4939194;29;20189;-71
2023/06/22 11:20:53;;;;;;;11.98;5.47;;;;;;;;;;4939321;29;20184;-71
2023/06/22 11:23:58;;;;;;;9.23;3.85;;;;;;;;;;4939104;29;20208;-70
2023/06/22 11:27:03;;;;;;;11.25;3.83;;;;;;;;;;4939269;29;20184;-71
2023/06/22 11:30:07;;;;;;;10.93;4.03;;;;;;;;;;4938074;29;20212;-70
2023/06/22 11:33:11;;;;;;;17.92;4.53;;;;;;;;;;4939184;29;20180;-71
2023/06/22 11:36:16;;;;;;;16.40;3.95;;;;;;;;;;4949031;29;20228;-71
2023/06/22 11:39:20;;;;;;;9.27;3.60;;;;;;;;;;4939041;29;20197;-71
2023/06/22 11:42:25;;;;;;;10.23;3.95;;;;;;;;;;4938707;29;20224;-71
2023/06/22 11:45:29;;;;;;;12.48;4.18;;;;;;;;;;4948755;29;20211;-71
2023/06/22 11:48:33;;;;;;;6.97;3.83;;;;;;;;;;4937851;29;20184;-71
2023/06/22 11:51:36;;;;;;;9.00;4.07;;;;;;;;;;4938640;29;20216;-71
2023/06/22 11:54:40;;;;;;;10.48;4.15;;;;;;;;;;4938533;29;20192;-71
2023/06/22 11:57:54;;;;;;;7.00;4.05;;;;;;;;;;4939076;29;20564;-72
2023/06/22 12:00:58;;;;;;;9.27;4.47;;;;;;;;;;4938023;29;20212;-71
2023/06/22 12:04:05;;;;;;;9.63;4.15;;;;;;;;;;4939008;29;20188;-71
2023/06/22 12:07:09;;;;;;;11.32;4.60;;;;;;;;;;4938948;29;20177;-71
2023/06/22 12:10:14;;;;;;;10.00;4.05;;;;;;;;;;4938737;29;20180;-71
2023/06/22 12:13:18;;;;;;;13.57;4.35;;;;;;;;;;4937877;29;20185;-71
2023/06/22 12:16:24;;;;;;;11.13;4.25;;;;;;;;;;4937826;29;20672;-71
2023/06/22 12:19:28;;;;;;;12.48;4.25;;;;;;;;;;4938104;29;20188;-71
2023/06/22 12:22:32;;;;;;;14.10;4.07;;;;;;;;;;4937226;29;20220;-71
2023/06/22 12:25:36;;;;;;;10.38;4.32;;;;;;;;;;4938195;29;20184;-71
2023/06/22 12:28:41;;;;;;;8.27;4.22;;;;;;;;;;4938027;29;20180;-71
2023/06/22 12:31:45;;;;;;;13.43;4.38;;;;;;;;;;4937398;29;20215;-72
2023/06/22 12:34:49;;;;;;;12.32;4.30;;;;;;;;;;4938140;29;20185;-71
2023/06/22 12:37:53;;;;;;;13.90;4.60;;;;;;;;;;4937750;29;20212;-71
2023/06/22 12:40:57;;;;;;;14.50;4.22;;;;;;;;;;4936924;29;20220;-71
2023/06/22 12:44:02;;;;;;;13.80;3.65;;;;;;;;;;4936811;29;20184;-72
2023/06/22 12:47:08;;;;;;;10.32;4.13;;;;;;;;;;4937654;29;20181;-71
2023/06/22 12:50:12;;;;;;;10.13;4.32;;;;;;;;;;4937863;29;20532;-71
2023/06/22 12:53:16;;;;;;;13.68;4.35;;;;;;;;;;4937522;29;20197;-71
2023/06/22 12:56:20;;;;;;;13.32;4.55;;;;;;;;;;4937389;29;20703;-71
2023/06/22 12:59:24;;;;;;;14.07;4.22;;;;;;;;;;4937457;29;20184;-71
2023/06/22 13:02:28;;;;;;;11.40;4.22;;;;;;;;;;4936484;29;20227;-71
2023/06/22 13:05:34;;;;;;;13.00;4.00;;;;;;;;;;4937287;29;20188;-71
2023/06/22 13:08:39;;;;;;;18.50;4.57;;;;;;;;;;4937243;29;20185;-71
2023/06/22 13:11:43;;;;;;;14.23;3.70;;;;;;;;;;4937123;29;20219;-71
2023/06/22 13:14:47;;;;;;;13.95;4.63;;;;;;;;;;4947262;29;20205;-72
2023/06/22 13:17:52;;;;;;;13.98;4.30;;;;;;;;;;4937209;29;20220;-72
2023/06/22 13:20:56;;;;;;;13.32;4.40;;;;;;;;;;4936913;29;20224;-72
2023/06/22 13:24:01;;;;;;;9.00;4.05;;;;;;;;;;4937172;29;20200;-72
2023/06/22 13:27:05;;;;;;;12.18;4.13;;;;;;;;;;4936839;29;20196;-72
2023/06/22 13:30:09;;;;;;;12.00;4.80;;;;;;;;;;4937322;29;20208;-72
2023/06/22 13:33:13;;;;;;;11.88;4.47;;;;;;;;;;4936755;29;20177;-72
2023/06/22 13:36:18;;;;;;;11.77;4.57;;;;;;;;;;4935540;29;20205;-72
2023/06/22 13:39:22;;;;;;;11.88;4.80;;;;;;;;;;4936904;29;20180;-72
2023/06/22 13:42:27;;;;;;;12.85;4.60;;;;;;;;;;4936786;29;20224;-72
2023/06/22 13:45:31;;;;;;;11.27;4.35;;;;;;;;;;4936537;29;20212;-72
2023/06/22 13:48:35;;;;;;;13.73;4.32;;;;;;;;;;4936762;29;20214;-72
2023/06/22 13:51:39;;;;;;;11.50;3.88;;;;;;;;;;4935801;29;20224;-72
2023/06/22 13:54:43;;;;;;;14.55;4.25;;;;;;;;;;4936411;29;20184;-72
2023/06/22 13:57:47;;;;;;;19.40;4.65;;;;;;;;;;4936376;29;20217;-72
2023/06/22 14:00:51;;;;;;;13.45;4.22;;;;;;;;;;4936414;29;20188;-71
2023/06/22 14:03:55;;;;;;;20.75;4.63;;;;;;;;;;4936853;29;20636;-72
2023/06/22 14:06:59;;;;;;;14.02;4.47;;;;;;;;;;4935980;29;20180;-72
2023/06/22 14:10:04;;;;;;;13.80;4.65;;;;;;;;;;4935749;29;20188;-72
2023/06/22 14:13:08;;;;;;;19.98;5.00;;;;;;;;;;4935552;29;20184;-72
2023/06/22 14:16:12;;;;;;;19.38;4.70;;;;;;;;;;4936453;29;20180;-72
2023/06/22 14:19:18;;;;;;;10.23;3.90;;;;;;;;;;4936498;29;20176;-72
2023/06/22 14:22:22;;;;;;;11.10;3.85;;;;;;;;;;4936502;29;20219;-72
2023/06/22 14:25:26;;;;;;;16.05;3.95;;;;;;;;;;4935579;29;20184;-72
2023/06/22 14:28:30;;;;;;;14.70;4.40;;;;;;;;;;4935969;29;20195;-72
2023/06/22 14:31:34;;;;;;;12.25;5.00;;;;;;;;;;4935418;29;20215;-72
2023/06/22 14:34:39;;;;;;;15.25;4.45;;;;;;;;;;4936265;29;20184;-72
2023/06/22 14:37:43;;;;;;;15.98;4.65;;;;;;;;;;4935167;29;20207;-72
2023/06/22 14:40:47;;;;;;;14.57;4.57;;;;;;;;;;4935237;29;20179;-72
2023/06/22 14:43:51;;;;;;;15.15;5.00;;;;;;;;;;4936112;29;20184;-73
2023/06/22 14:46:56;;;;;;;17.90;4.82;;;;;;;;;;4935762;29;20176;-71
2023/06/22 14:50:00;;;;;;;13.00;4.35;;;;;;;;;;4939523;29;20183;-72
2023/06/22 14:53:04;;;;;;;14.07;3.92;;;;;;;;;;4938942;29;20188;-72
2023/06/22 14:56:08;;;;;;;12.80;4.50;;;;;;;;;;4939500;29;20184;-72
2023/06/22 14:59:12;;;;;;;13.70;4.75;;;;;;;;;;4938660;29;20206;-72
2023/06/22 15:02:16;;;;;;;17.80;4.75;;;;;;;;;;4939477;29;20211;-71
2023/06/22 15:05:20;;;;;;;10.43;4.43;;;;;;;;;;4949672;29;20551;-72
2023/06/22 15:08:25;;;;;;;13.48;4.95;;;;;;;;;;4938444;29;20199;-71
2023/06/22 15:11:30;;;;;;;12.80;4.57;;;;;;;;;;4939355;29;20223;-71
2023/06/22 15:14:34;;;;;;;15.93;5.00;;;;;;;;;;4938296;29;20200;-71
2023/06/22 15:17:38;;;;;;;12.55;4.15;;;;;;;;;;4949262;29;20237;-71
2023/06/22 15:20:44;;;;;;;19.15;5.00;;;;;;;;;;4939026;29;20184;-71
2023/06/22 15:23:48;;;;;;;18.42;5.60;;;;;;;;;;4939450;29;20184;-71
2023/06/22 15:26:52;;;;;;;17.30;4.60;;;;;;;;;;4939256;29;20176;-71
2023/06/22 15:29:57;;;;;;;15.32;4.68;;;;;;;;;;4939101;29;20184;-72
2023/06/22 15:33:01;;;;;;;15.65;4.72;;;;;;;;;;4939054;29;20659;-71
2023/06/22 15:36:06;;;;;;;14.52;5.13;;;;;;;;;;4939172;29;20199;-72
2023/06/22 15:39:11;;;;;;;12.80;4.85;;;;;;;;;;4939098;29;20181;-71
2023/06/22 15:42:15;;;;;;;10.98;4.65;;;;;;;;;;4939432;29;20216;-71
2023/06/22 15:45:19;;;;;;;12.45;4.55;;;;;;;;;;4938692;29;20307;-71
2023/06/22 15:48:23;;;;;;;11.82;4.65;;;;;;;;;;4938890;29;20184;-71
2023/06/22 15:51:28;;;;;;;16.65;4.95;;;;;;;;;;4938075;29;20216;-71
2023/06/22 15:54:32;;;;;;;11.80;4.38;;;;;;;;;;4938405;29;20225;-71
2023/06/22 15:57:36;;;;;;;9.43;4.22;;;;;;;;;;4938371;29;20212;-71
2023/06/22 16:00:41;;;;;;;14.20;4.85;;;;;;;;;;4926995;29;20188;-71
2023/06/22 16:03:45;;;;;;;9.50;4.65;;;;;;;;;;4927211;29;20181;-72
2023/06/22 16:06:49;;;;;;;17.17;5.13;;;;;;;;;;4938363;29;20184;-72
2023/06/22 16:09:53;;;;;;;15.05;4.65;;;;;;;;;;4938133;29;20533;-72
2023/06/22 16:12:58;;;;;;;12.05;5.00;;;;;;;;;;4938099;29;20220;-71
2023/06/22 16:16:02;;;;;;;12.20;4.95;;;;;;;;;;4937257;29;20185;-71
2023/06/22 16:19:06;;;;;;;13.65;4.68;;;;;;;;;;4938181;29;20664;-71
2023/06/22 16:22:10;;;;;;;14.52;4.75;;;;;;;;;;4937916;29;20228;-71
2023/06/22 16:25:14;;;;;;;14.40;5.00;;;;;;;;;;4937875;29;20208;-72
2023/06/22 16:28:18;;;;;;;12.00;5.00;;;;;;;;;;4938111;29;20181;-72
2023/06/22 16:31:22;;;;;;;13.25;4.70;;;;;;;;;;4937282;29;20223;-71
2023/06/22 16:34:26;;;;;;;17.35;4.82;;;;;;;;;;4937858;29;20542;-71
2023/06/22 16:37:30;;;;;;;14.20;4.68;;;;;;;;;;4937724;29;20212;-72
2023/06/22 16:40:35;;;;;;;12.82;4.57;;;;;;;;;;4937141;29;20228;-71
2023/06/22 16:43:39;;;;;;;12.43;4.28;;;;;;;;;;4936889;29;20177;-71
2023/06/22 16:46:44;;;;;;;15.30;5.00;;;;;;;;;;4936993;29;20185;-71
2023/06/22 16:49:49;;;;;;;10.27;4.43;;;;;;;;;;4947943;29;20523;-72
2023/06/22 16:52:53;;;;;;;16.60;4.72;;;;;;;;;;4936746;29;20220;-72
2023/06/22 16:55:58;;;;;;;15.55;5.63;;;;;;;;;;4937341;29;20185;-72
2023/06/22 16:59:02;;;;;;;15.57;4.57;;;;;;;;;;4937193;29;20787;-72
2023/06/22 17:02:16;;;;;;;10.13;4.20;;;;;;;;;;4937180;29;20216;-71
2023/06/22 17:05:20;;;;;;;11.20;4.93;;;;;;;;;;4937539;29;20188;-72
2023/06/22 17:08:32;;;;;;;13.02;5.00;;;;;;;;;;4937057;29;20176;-72
2023/06/22 17:11:36;;;;;;;9.98;4.43;;;;;;;;;;4936229;29;20220;-72
2023/06/22 17:14:45;;;;;;;15.48;5.18;;;;;;;;;;4936592;29;20193;-72
2023/06/22 17:17:50;;;;;;;16.25;4.82;;;;;;;;;;4937229;29;20217;-72
2023/06/22 17:20:54;;;;;;;11.00;4.45;;;;;;;;;;4937143;29;20228;-72
2023/06/22 17:24:01;;;;;;;15.15;4.82;;;;;;;;;;4936416;29;20185;-72
2023/06/22 17:27:05;;;;;;;11.68;4.70;;;;;;;;;;4937125;29;20176;-72
2023/06/22 17:30:12;;;;;;;12.57;4.20;;;;;;;;;;4936686;29;20177;-72
2023/06/22 17:33:18;;;;;;;13.02;5.07;;;;;;;;;;4936714;29;20200;-72
2023/06/22 17:36:23;;;;;;;10.18;4.50;;;;;;;;;;4936857;29;20204;-73
2023/06/22 17:39:31;;;;;;;12.43;4.55;;;;;;;;;;4936820;29;20676;-72
2023/06/22 17:42:35;;;;;;;14.38;4.88;;;;;;;;;;4936607;29;20224;-71
2023/06/22 17:45:44;;;;;;;14.70;5.05;;;;;;;;;;4936497;29;20553;-72
2023/06/22 17:48:48;;;;;;;14.85;5.50;;;;;;;;;;4936771;29;20173;-72
2023/06/22 17:51:53;;;;;;;15.02;5.22;;;;;;;;;;4936534;29;20560;-72
2023/06/22 17:55:02;;;;;;;15.80;5.28;;;;;;;;;;4936751;29;20184;-72
2023/06/22 17:58:06;;;;;;;17.65;5.47;;;;;;;;;;4936572;29;20219;-72
2023/06/22 18:01:13;;;;;;;14.88;5.70;;;;;;;;;;4947018;29;20219;-71
2023/06/22 18:04:19;;;;;;;15.35;5.50;;;;;;;;;;4936442;29;20180;-72
2023/06/22 18:07:26;;;;;;;20.13;5.93;;;;;;;;;;4946517;29;20184;-72
2023/06/22 18:10:33;;;;;;;15.73;5.68;;;;;;;;;;4936467;29;20188;-72
2023/06/22 18:13:38;;;;;;;22.65;6.72;;;;;;;;;;4936066;29;20200;-72
2023/06/22 18:16:45;;;;;;;35.78;8.85;;;;;;;;;;4936145;29;20631;-72
2023/06/22 18:19:50;;;;;;;29.88;7.93;;;;;;;;;;4935691;29;20189;-73